Ust'Kamchatsk, Russia
Current Conditions -  °F | °C
As of 4:00 PM on Saturday 25 Oct 2014 (Local Time) from UHPP Reporting Station
Broken Clouds Broken Clouds  
Wind Chill: 45°   Ceiling: 10000
Heat Index: 45°   Visibility: 6mi
Dew Point: 27°   Wind: 0mph
Humidity: 49%   Direction: NA
Pressure: 29.83"   Gusts: NA
Location:  56.23°N, 162.46°E
Report Text: UHPP 250400Z 00000MPS 9999 SCT046 BKN100 07/M03 Q1010 NOSIG RMKMT OBSC QFE754/1006 SC070
Loading
Personal Weather Stations






























Interactive Weather Map
Tropical Storm Tracking
New forecast layout! Learn more

10-Day Weather Forecast

Advertisements
Track Severe Weather on mobile